Time;durP1;ratioP1;P1;durP2;ratioP2;P2;SDS_P1;SDS_P2;PMS_P1;PMS_P2;Temp;Humidity;BMP_temperature;BMP_pressure;BME280_temperature;BME280_humidity;BME280_pressure;Samples;Min_cycle;Max_cycle;Signal;HPM_P1;HPM_P2
2023/07/11 00:02:26;;;;;;;13.03;12.63;;;20.10;99.90;;;;;;5067048;28;20485;-67
2023/07/11 00:04:56;;;;;;;12.70;12.40;;;20.10;99.90;;;;;;5056236;28;20463;-68
2023/07/11 00:07:24;;;;;;;13.10;12.70;;;20.10;99.90;;;;;;5061767;28;20463;-67
2023/07/11 00:09:52;;;;;;;13.23;12.83;;;20.10;99.90;;;;;;5080087;28;20804;-67
2023/07/11 00:12:21;;;;;;;13.57;13.17;;;20.10;99.90;;;;;;5069691;28;20508;-67
2023/07/11 00:14:47;;;;;;;13.40;13.00;;;20.10;99.90;;;;;;5074867;28;20478;-67
2023/07/11 00:17:15;;;;;;;13.30;12.90;;;20.00;99.90;;;;;;5069895;28;20846;-66
2023/07/11 00:19:50;;;;;;;12.93;12.53;;;20.00;99.90;;;;;;5072702;28;20469;-68
2023/07/11 00:22:20;;;;;;;12.50;12.20;;;20.00;99.90;;;;;;5070479;28;20539;-66
2023/07/11 00:24:49;;;;;;;13.10;12.70;;;20.00;99.90;;;;;;5070103;28;20459;-66
2023/07/11 00:27:18;;;;;;;13.73;13.33;;;19.90;99.90;;;;;;5071743;28;20490;-67
2023/07/11 00:29:45;;;;;;;14.20;13.70;;;19.90;99.90;;;;;;5073659;28;20865;-66
2023/07/11 00:32:13;;;;;;;13.47;13.07;;;19.90;99.90;;;;;;5066555;28;20494;-67
2023/07/11 00:34:40;;;;;;;12.70;12.30;;;20.00;99.90;;;;;;5078744;28;20470;-67
2023/07/11 00:37:08;;;;;;;12.63;12.30;;;19.90;99.90;;;;;;5068420;28;20466;-67
2023/07/11 00:39:36;;;;;;;12.40;12.10;;;20.00;99.90;;;;;;5068484;28;20481;-66
2023/07/11 00:42:05;;;;;;;12.50;12.20;;;19.90;99.90;;;;;;5067926;28;20471;-66
2023/07/11 00:44:49;;;;;;;12.50;12.20;;;19.90;99.90;;;;;;5075453;28;20463;-67
2023/07/11 00:47:15;;;;;;;12.40;12.10;;;19.90;99.90;;;;;;5064350;28;20469;-68
2023/07/11 00:49:42;;;;;;;12.40;12.10;;;19.90;99.90;;;;;;5064501;28;20859;-67
2023/07/11 00:52:10;;;;;;;12.70;12.40;;;19.90;99.90;;;;;;5077775;28;20455;-67
2023/07/11 00:54:39;;;;;;;12.30;12.00;;;19.90;99.90;;;;;;5067545;28;20447;-67
2023/07/11 00:57:09;;;;;;;12.20;11.90;;;19.80;99.90;;;;;;5069684;28;20455;-67
2023/07/11 00:59:37;;;;;;;17.20;16.60;;;19.80;99.90;;;;;;5071537;28;20486;-68
2023/07/11 01:02:07;;;;;;;12.20;11.90;;;19.80;99.90;;;;;;5069929;28;20455;-67
2023/07/11 01:04:36;;;;;;;12.43;12.13;;;19.90;99.90;;;;;;5075146;28;20482;-66
2023/07/11 01:07:02;;;;;;;12.30;12.00;;;19.80;99.90;;;;;;5067652;28;20459;-66
2023/07/11 01:09:30;;;;;;;12.70;12.37;;;19.80;99.90;;;;;;5068512;28;20462;-67
2023/07/11 01:12:08;;;;;;;12.47;12.17;;;19.70;99.90;;;;;;5071772;28;20875;-67
2023/07/11 01:14:36;;;;;;;12.53;12.23;;;19.70;99.90;;;;;;5068117;28;20459;-67
2023/07/11 01:17:21;;;;;;;12.30;12.00;;;19.70;99.90;;;;;;5074468;28;20458;-66
2023/07/11 01:19:48;;;;;;;12.40;12.10;;;19.70;99.90;;;;;;5070007;28;20455;-67
2023/07/11 01:22:16;;;;;;;12.33;12.03;;;19.60;99.90;;;;;;5067741;28;20447;-67
2023/07/11 01:24:44;;;;;;;12.50;12.20;;;19.60;99.90;;;;;;5067972;28;20458;-67
2023/07/11 01:27:13;;;;;;;12.73;12.40;;;19.60;99.90;;;;;;5074686;28;20825;-67
2023/07/11 01:29:41;;;;;;;12.17;11.87;;;19.50;99.90;;;;;;5062416;28;20475;-68
2023/07/11 01:32:10;;;;;;;12.10;11.80;;;19.50;99.90;;;;;;5070474;28;20458;-68
2023/07/11 01:34:37;;;;;;;12.10;11.80;;;19.50;99.90;;;;;;5067476;28;20461;-66
2023/07/11 01:37:06;;;;;;;11.87;11.57;;;19.50;99.90;;;;;;5066391;28;20459;-66
2023/07/11 01:39:36;;;;;;;12.07;11.77;;;19.50;99.90;;;;;;5067486;28;20494;-67
2023/07/11 01:42:03;;;;;;;12.03;11.73;;;19.40;99.90;;;;;;5067632;28;20459;-67
2023/07/11 01:44:31;;;;;;;11.60;11.30;;;19.40;99.90;;;;;;5072552;28;20525;-68
2023/07/11 01:46:57;;;;;;;11.63;11.33;;;19.40;99.90;;;;;;5070122;28;20537;-67
2023/07/11 01:49:26;;;;;;;11.30;11.00;;;19.40;99.90;;;;;;5071058;28;20462;-66
2023/07/11 01:52:04;;;;;;;11.10;10.83;;;19.30;99.90;;;;;;5067413;28;20466;-67
2023/07/11 01:54:31;;;;;;;10.70;10.50;;;19.30;99.90;;;;;;5073480;28;20463;-67
2023/07/11 01:57:01;;;;;;;10.50;10.30;;;19.30;99.90;;;;;;5074712;28;20461;-67
2023/07/11 01:59:28;;;;;;;10.50;10.30;;;19.20;99.90;;;;;;5074459;28;20578;-67
2023/07/11 02:01:56;;;;;;;11.30;11.00;;;19.10;99.90;;;;;;5072642;28;20866;-67
2023/07/11 02:04:23;;;;;;;10.57;10.37;;;19.00;99.90;;;;;;5073714;28;20938;-66
2023/07/11 02:06:50;;;;;;;10.80;10.60;;;18.90;99.90;;;;;;5074462;28;20451;-67
2023/07/11 02:09:17;;;;;;;11.20;10.90;;;18.90;99.90;;;;;;5074081;28;20471;-68
2023/07/11 02:11:45;;;;;;;10.50;10.30;;;18.80;99.90;;;;;;5073885;28;20447;-68
2023/07/11 02:14:15;;;;;;;10.60;10.40;;;18.80;99.90;;;;;;5073034;28;20451;-66
2023/07/11 02:16:44;;;;;;;10.60;10.40;;;18.80;99.90;;;;;;5072881;28;20483;-67
2023/07/11 02:19:11;;;;;;;10.40;10.20;;;18.70;99.90;;;;;;5073964;28;20532;-66
2023/07/11 02:21:39;;;;;;;10.53;10.33;;;18.70;99.90;;;;;;5074168;28;20487;-67
2023/07/11 02:24:07;;;;;;;10.30;10.10;;;18.70;99.90;;;;;;5074194;28;21163;-67
2023/07/11 02:26:34;;;;;;;11.23;10.93;;;18.70;99.90;;;;;;5073670;28;20454;-67
2023/07/11 02:29:00;;;;;;;10.40;10.20;;;18.70;99.90;;;;;;5071845;28;20473;-67
2023/07/11 02:31:30;;;;;;;10.57;10.37;;;18.70;99.90;;;;;;5074103;28;20934;-67
2023/07/11 02:33:57;;;;;;;10.53;10.33;;;18.80;99.90;;;;;;5073266;28;20528;-66
2023/07/11 02:36:24;;;;;;;10.47;10.27;;;18.80;99.90;;;;;;5074019;28;20455;-67
2023/07/11 02:38:51;;;;;;;10.17;9.97;;;18.70;99.90;;;;;;5073785;28;20470;-68
2023/07/11 02:41:20;;;;;;;10.20;10.00;;;18.60;99.90;;;;;;5071087;28;20459;-66
2023/07/11 02:43:47;;;;;;;10.23;10.03;;;18.60;99.90;;;;;;5073631;28;20477;-67
2023/07/11 02:46:15;;;;;;;10.27;10.07;;;18.60;99.90;;;;;;5073691;28;20474;-67
2023/07/11 02:48:44;;;;;;;10.20;10.00;;;18.60;99.90;;;;;;5072960;28;20910;-66
2023/07/11 02:51:10;;;;;;;11.03;10.77;;;18.50;99.90;;;;;;5073002;28;20537;-67
2023/07/11 02:53:38;;;;;;;11.30;11.00;;;18.50;99.90;;;;;;5070031;28;20482;-67
2023/07/11 02:56:05;;;;;;;10.20;10.00;;;18.50;99.90;;;;;;5072818;28;20963;-67
2023/07/11 02:58:32;;;;;;;10.27;10.07;;;18.30;99.90;;;;;;5078303;28;20807;-66
2023/07/11 03:01:00;;;;;;;9.77;9.57;;;18.30;99.90;;;;;;5068247;28;20455;-66
2023/07/11 03:03:27;;;;;;;9.90;9.70;;;18.30;99.90;;;;;;5073054;28;20931;-67
2023/07/11 03:05:56;;;;;;;9.80;9.60;;;18.30;99.90;;;;;;5068517;28;20838;-67
2023/07/11 03:08:24;;;;;;;9.70;9.50;;;18.20;99.90;;;;;;5074992;28;20469;-68
2023/07/11 03:10:51;;;;;;;9.70;9.50;;;18.20;99.90;;;;;;5079202;28;20490;-66
2023/07/11 03:13:18;;;;;;;10.00;9.80;;;18.20;99.90;;;;;;5070129;28;20842;-66
2023/07/11 03:15:46;;;;;;;9.60;9.40;;;18.10;99.90;;;;;;5069701;28;20487;-67
2023/07/11 03:18:14;;;;;;;11.70;11.40;;;18.10;99.90;;;;;;5071431;28;21198;-67
2023/07/11 03:20:42;;;;;;;15.60;15.10;;;18.10;99.90;;;;;;5078949;28;20528;-67
2023/07/11 03:23:12;;;;;;;15.23;14.73;;;18.10;99.90;;;;;;5068195;28;20474;-67
2023/07/11 03:25:39;;;;;;;12.40;12.10;;;18.10;99.90;;;;;;5073541;28;20462;-66
2023/07/11 03:28:06;;;;;;;12.43;12.13;;;18.00;99.90;;;;;;5080608;28;20850;-68
2023/07/11 03:30:33;;;;;;;11.10;10.80;;;18.10;99.90;;;;;;5064068;28;20479;-68
2023/07/11 03:33:01;;;;;;;11.30;11.00;;;18.10;99.90;;;;;;5079737;28;20793;-67
2023/07/11 03:35:28;;;;;;;10.47;10.27;;;18.10;99.90;;;;;;5069865;28;20562;-67
2023/07/11 03:37:55;;;;;;;9.93;9.73;;;18.00;99.90;;;;;;5070722;28;20972;-66
2023/07/11 03:40:24;;;;;;;9.90;9.70;;;18.00;99.90;;;;;;5068868;28;20470;-67
2023/07/11 03:42:52;;;;;;;10.00;9.80;;;17.90;99.90;;;;;;5069594;28;20570;-67
2023/07/11 03:45:20;;;;;;;9.90;9.70;;;17.90;99.90;;;;;;5067957;28;20462;-68
2023/07/11 03:47:47;;;;;;;10.00;9.80;;;17.90;99.90;;;;;;5073773;28;20953;-66
2023/07/11 03:50:14;;;;;;;9.90;9.70;;;17.90;99.90;;;;;;5062183;28;20965;-66
2023/07/11 03:52:41;;;;;;;9.87;9.67;;;17.90;99.90;;;;;;5072187;28;20485;-66
2023/07/11 03:55:09;;;;;;;10.13;9.93;;;17.90;99.90;;;;;;5072272;28;20455;-66
2023/07/11 03:57:37;;;;;;;9.93;9.73;;;18.00;99.90;;;;;;5069238;28;20454;-68
2023/07/11 04:00:05;;;;;;;10.60;10.40;;;17.90;99.90;;;;;;5069547;28;20497;-67
2023/07/11 04:02:32;;;;;;;10.63;10.43;;;18.00;99.90;;;;;;5077550;28;20934;-66
2023/07/11 04:04:59;;;;;;;10.30;10.10;;;18.00;99.90;;;;;;5074083;28;20913;-66
2023/07/11 04:07:26;;;;;;;10.50;10.30;;;18.00;99.90;;;;;;5059016;28;21043;-67
2023/07/11 04:09:52;;;;;;;10.27;10.07;;;18.00;99.90;;;;;;5068992;28;20458;-66
2023/07/11 04:12:19;;;;;;;10.87;10.63;;;18.00;99.90;;;;;;5079612;28;20858;-67
2023/07/11 04:14:48;;;;;;;10.40;10.20;;;18.10;99.90;;;;;;5068708;28;20548;-66
2023/07/11 04:17:15;;;;;;;10.27;10.07;;;18.10;99.90;;;;;;5078466;28;20519;-66
2023/07/11 04:19:42;;;;;;;10.73;10.53;;;18.10;99.90;;;;;;5071595;28;20506;-67
2023/07/11 04:22:09;;;;;;;10.73;10.53;;;18.10;99.90;;;;;;5072582;28;20460;-66
2023/07/11 04:24:36;;;;;;;10.67;10.47;;;18.10;99.90;;;;;;5068664;28;20458;-67
2023/07/11 04:27:03;;;;;;;11.40;11.10;;;18.10;99.90;;;;;;5068792;28;20861;-66
2023/07/11 04:29:30;;;;;;;11.10;10.80;;;18.20;99.90;;;;;;5066365;28;20465;-68
2023/07/11 04:31:59;;;;;;;11.40;11.10;;;18.30;99.90;;;;;;5076051;28;20519;-67
2023/07/11 04:34:25;;;;;;;11.33;11.03;;;18.40;99.90;;;;;;5065048;28;20845;-67
2023/07/11 04:36:52;;;;;;;10.87;10.67;;;18.40;99.90;;;;;;5079843;28;20459;-67
2023/07/11 04:39:19;;;;;;;11.40;11.10;;;18.40;99.90;;;;;;5068787;28;20558;-68
2023/07/11 04:41:45;;;;;;;11.53;11.23;;;18.40;99.90;;;;;;5071755;28;20470;-67
2023/07/11 04:44:12;;;;;;;11.40;11.10;;;18.50;99.90;;;;;;5072637;28;20477;-68
2023/07/11 04:46:39;;;;;;;11.27;10.97;;;18.60;99.90;;;;;;5072225;28;20470;-67
2023/07/11 04:49:07;;;;;;;11.40;11.10;;;18.70;99.90;;;;;;5074743;28;20463;-67
2023/07/11 04:51:35;;;;;;;11.40;11.10;;;18.70;99.90;;;;;;5074097;28;20463;-66
2023/07/11 04:54:02;;;;;;;11.30;11.00;;;18.80;99.90;;;;;;5070473;28;20504;-66
2023/07/11 04:56:29;;;;;;;11.40;11.10;;;18.80;99.90;;;;;;5066520;28;20463;-67
2023/07/11 04:58:56;;;;;;;11.90;11.60;;;18.90;99.90;;;;;;5065274;28;20486;-66
2023/07/11 05:01:23;;;;;;;11.90;11.60;;;19.00;99.90;;;;;;5069648;28;20868;-68
2023/07/11 05:03:51;;;;;;;11.90;11.60;;;19.10;99.90;;;;;;5049934;28;20463;-67
2023/07/11 05:06:21;;;;;;;11.83;11.53;;;19.10;99.90;;;;;;5051369;28;20586;-66
2023/07/11 05:08:47;;;;;;;12.17;11.87;;;19.30;99.90;;;;;;5050306;28;20463;-68
2023/07/11 05:11:16;;;;;;;11.70;11.40;;;19.30;99.90;;;;;;5051303;28;20466;-67
2023/07/11 05:13:44;;;;;;;11.87;11.57;;;19.40;99.90;;;;;;5052429;28;20909;-67
2023/07/11 05:16:15;;;;;;;11.90;11.60;;;19.50;99.90;;;;;;5050964;28;20475;-66
2023/07/11 05:18:42;;;;;;;11.80;11.50;;;19.50;99.90;;;;;;5050768;28;20488;-68
2023/07/11 05:21:10;;;;;;;11.70;11.40;;;19.60;99.90;;;;;;5051631;28;20467;-66
2023/07/11 05:23:38;;;;;;;12.00;11.70;;;19.70;99.90;;;;;;5052705;28;20474;-67
2023/07/11 05:26:07;;;;;;;12.20;11.90;;;19.80;99.90;;;;;;5055207;28;20766;-66
2023/07/11 05:28:35;;;;;;;12.33;12.03;;;19.90;99.90;;;;;;5054520;28;20508;-66
2023/07/11 05:31:03;;;;;;;12.33;12.03;;;20.00;99.90;;;;;;5056146;28;21200;-69
2023/07/11 05:33:31;;;;;;;12.30;12.00;;;20.10;99.90;;;;;;5054950;28;20565;-67
2023/07/11 05:36:31;;;;;;;12.40;12.10;;;20.20;99.90;;;;;;5054886;28;20466;-67
2023/07/11 05:39:00;;;;;;;12.20;11.90;;;20.20;99.90;;;;;;5058002;28;21048;-67
2023/07/11 05:41:27;;;;;;;12.30;12.00;;;20.40;99.90;;;;;;5056726;28;20462;-68
2023/07/11 05:43:55;;;;;;;12.37;12.07;;;20.40;99.90;;;;;;5055910;28;21099;-67
2023/07/11 05:46:22;;;;;;;12.30;12.00;;;20.50;99.90;;;;;;5056941;28;20462;-66
2023/07/11 05:48:49;;;;;;;12.37;12.07;;;20.70;99.90;;;;;;5052451;28;20468;-68
2023/07/11 05:51:18;;;;;;;12.50;12.20;;;20.70;99.90;;;;;;5061496;28;20465;-66
2023/07/11 05:53:46;;;;;;;12.60;12.30;;;20.80;99.90;;;;;;5059313;28;20485;-66
2023/07/11 05:56:15;;;;;;;12.80;12.40;;;21.00;99.90;;;;;;5059462;28;20459;-65
2023/07/11 05:58:43;;;;;;;12.60;12.30;;;21.10;99.90;;;;;;5066723;28;20960;-67
2023/07/11 06:01:12;;;;;;;12.83;12.43;;;21.20;99.90;;;;;;5072572;28;20472;-64
2023/07/11 06:03:41;;;;;;;13.07;12.67;;;21.30;99.90;;;;;;5078661;28;20454;-67
2023/07/11 06:06:09;;;;;;;13.00;12.60;;;21.40;99.90;;;;;;5071352;28;20497;-65
2023/07/11 06:08:36;;;;;;;13.50;13.10;;;21.40;99.90;;;;;;5072289;28;20466;-67
2023/07/11 06:11:05;;;;;;;13.17;12.77;;;21.50;99.90;;;;;;5076198;28;20469;-65
2023/07/11 06:13:37;;;;;;;13.20;12.80;;;21.60;99.90;;;;;;5073069;28;20760;-66
2023/07/11 06:16:06;;;;;;;13.40;13.00;;;21.60;99.90;;;;;;5078737;28;20873;-67
2023/07/11 06:18:35;;;;;;;13.33;12.93;;;21.80;99.90;;;;;;5066697;28;20456;-67
2023/07/11 06:21:02;;;;;;;13.40;13.00;;;21.90;99.90;;;;;;5064465;28;20486;-66
2023/07/11 06:23:30;;;;;;;13.40;13.00;;;22.10;99.90;;;;;;5058975;28;21043;-66
2023/07/11 06:25:57;;;;;;;13.60;13.20;;;22.20;99.90;;;;;;5062693;28;20471;-66
2023/07/11 06:28:24;;;;;;;13.90;13.50;;;22.20;99.90;;;;;;5061667;28;20481;-66
2023/07/11 06:30:56;;;;;;;13.87;13.47;;;22.40;99.90;;;;;;5063875;28;20878;-66
2023/07/11 06:33:23;;;;;;;13.40;13.00;;;22.60;99.90;;;;;;5068169;28;20462;-65
2023/07/11 06:35:51;;;;;;;13.80;13.40;;;22.60;99.90;;;;;;5056098;28;20558;-66
2023/07/11 06:38:18;;;;;;;13.70;13.30;;;22.70;99.90;;;;;;5065962;28;20466;-66
2023/07/11 06:40:49;;;;;;;13.73;13.33;;;22.80;99.90;;;;;;5067869;28;20513;-66
2023/07/11 06:43:16;;;;;;;13.83;13.43;;;22.90;99.90;;;;;;5063248;28;20486;-67
2023/07/11 06:45:45;;;;;;;13.60;13.20;;;22.90;99.90;;;;;;5065941;28;20467;-67
2023/07/11 06:48:14;;;;;;;13.87;13.47;;;23.10;99.90;;;;;;5071614;28;20484;-66
2023/07/11 06:50:41;;;;;;;14.10;13.70;;;23.10;99.90;;;;;;5069225;28;20895;-66
2023/07/11 06:53:08;;;;;;;14.73;14.23;;;23.30;99.90;;;;;;5062308;28;20529;-68
2023/07/11 06:55:35;;;;;;;14.20;13.80;;;23.50;99.90;;;;;;5068392;28;20457;-66
2023/07/11 06:58:03;;;;;;;13.50;13.10;;;23.70;99.90;;;;;;5061830;28;20588;-67
2023/07/11 07:00:31;;;;;;;14.10;13.70;;;23.80;99.90;;;;;;5062644;28;20486;-66
2023/07/11 07:02:58;;;;;;;14.00;13.60;;;23.90;99.90;;;;;;5058064;28;20966;-67
2023/07/11 07:05:27;;;;;;;13.67;13.27;;;24.10;99.90;;;;;;5070041;28;20516;-68
2023/07/11 07:07:54;;;;;;;14.20;13.80;;;24.20;99.90;;;;;;5062463;28;20933;-66
2023/07/11 07:10:21;;;;;;;14.60;14.10;;;24.30;99.90;;;;;;5063275;28;20513;-66
2023/07/11 07:12:47;;;;;;;14.37;13.87;;;24.40;99.90;;;;;;5061599;28;20463;-68
2023/07/11 07:15:14;;;;;;;14.20;13.73;;;24.50;99.90;;;;;;5050439;28;20495;-67
2023/07/11 07:17:42;;;;;;;14.27;13.83;;;24.70;99.90;;;;;;5053496;28;20465;-68
2023/07/11 07:20:10;;;;;;;14.17;13.77;;;24.70;99.90;;;;;;5059404;28;20625;-66
2023/07/11 07:22:39;;;;;;;14.63;14.13;;;24.90;99.90;;;;;;5061999;28;20550;-68
2023/07/11 07:25:06;;;;;;;14.50;14.00;;;25.00;99.90;;;;;;5064569;28;20574;-67
2023/07/11 07:27:33;;;;;;;14.17;13.77;;;25.10;99.90;;;;;;5065413;28;20478;-68
2023/07/11 07:30:00;;;;;;;14.13;13.73;;;25.30;99.90;;;;;;5063177;28;20467;-66
2023/07/11 07:32:27;;;;;;;14.00;13.60;;;25.40;99.90;;;;;;5049766;28;20467;-67
2023/07/11 07:34:54;;;;;;;14.97;14.47;;;25.70;99.90;;;;;;5053982;28;20459;-67
2023/07/11 07:37:22;;;;;;;14.63;14.13;;;25.80;99.90;;;;;;5066253;28;20916;-67
2023/07/11 07:39:50;;;;;;;14.60;14.10;;;26.00;99.90;;;;;;5065179;28;20552;-68
2023/07/11 07:42:16;;;;;;;14.60;14.10;;;26.10;99.90;;;;;;5061639;28;20462;-68
2023/07/11 07:44:43;;;;;;;15.20;14.70;;;26.30;99.90;;;;;;5064864;28;20454;-68
2023/07/11 07:47:10;;;;;;;14.80;14.30;;;26.50;99.90;;;;;;5056134;28;20558;-69
2023/07/11 07:49:38;;;;;;;14.90;14.40;;;26.60;99.90;;;;;;5060989;28;20467;-67
2023/07/11 07:52:06;;;;;;;15.13;14.63;;;26.70;99.90;;;;;;5056411;28;20510;-68
2023/07/11 07:54:33;;;;;;;14.50;14.00;;;26.80;99.90;;;;;;5058805;28;20594;-67
2023/07/11 07:57:02;;;;;;;14.60;14.10;;;26.90;99.90;;;;;;5061756;28;20467;-66
2023/07/11 07:59:29;;;;;;;14.50;14.00;;;26.90;99.90;;;;;;5057081;28;21034;-68
2023/07/11 08:01:56;;;;;;;15.00;14.50;;;26.90;99.90;;;;;;5057361;28;20460;-68
2023/07/11 08:04:22;;;;;;;14.87;14.37;;;26.90;99.90;;;;;;5048092;28;20459;-68
2023/07/11 08:06:49;;;;;;;14.97;14.47;;;26.70;99.90;;;;;;5055544;28;20459;-69
2023/07/11 08:09:17;;;;;;;15.10;14.60;;;26.70;99.90;;;;;;5058242;28;20463;-68
2023/07/11 08:11:44;;;;;;;14.90;14.40;;;26.90;99.90;;;;;;5060030;28;20467;-68
2023/07/11 08:14:12;;;;;;;14.73;14.23;;;27.40;99.90;;;;;;5065962;28;20466;-68
2023/07/11 08:16:40;;;;;;;15.00;14.50;;;27.70;99.90;;;;;;5053737;28;20514;-68
2023/07/11 08:19:07;;;;;;;15.00;14.50;;;28.10;99.90;;;;;;5059406;28;20528;-67
2023/07/11 08:21:35;;;;;;;15.10;14.60;;;28.50;99.90;;;;;;5055774;28;20495;-68
2023/07/11 08:24:01;;;;;;;15.70;15.20;;;29.00;99.90;;;;;;5061665;28;20792;-68
2023/07/11 08:26:28;;;;;;;15.73;15.23;;;29.50;99.90;;;;;;5056436;28;20473;-68
2023/07/11 08:28:56;;;;;;;15.40;14.90;;;29.90;99.90;;;;;;5061900;28;20560;-68
2023/07/11 08:31:24;;;;;;;16.17;15.57;;;30.40;99.90;;;;;;5059858;28;20459;-68
2023/07/11 08:33:51;;;;;;;15.50;15.00;;;30.40;99.90;;;;;;5062982;28;20482;-67
2023/07/11 08:36:18;;;;;;;15.50;15.00;;;30.10;99.90;;;;;;5056723;28;20499;-67
2023/07/11 08:38:46;;;;;;;15.27;14.77;;;29.90;99.90;;;;;;5061466;28;20824;-67
2023/07/11 08:41:24;;;;;;;15.40;14.90;;;30.10;99.90;;;;;;5071914;28;20497;-67
2023/07/11 08:43:55;;;;;;;15.90;15.30;;;30.50;99.90;;;;;;5055354;28;21160;-68
2023/07/11 08:46:25;;;;;;;15.43;14.93;;;31.30;99.90;;;;;;5055049;28;20452;-67
2023/07/11 08:48:57;;;;;;;14.70;14.20;;;31.60;99.90;;;;;;5061135;28;20462;-67
2023/07/11 08:51:28;;;;;;;15.43;14.93;;;30.80;99.90;;;;;;5058830;28;20465;-68
2023/07/11 08:54:01;;;;;;;15.37;14.87;;;29.90;99.90;;;;;;5055656;28;20486;-68
2023/07/11 08:56:36;;;;;;;15.33;14.83;;;29.60;99.90;;;;;;5053079;28;20466;-68
2023/07/11 08:59:07;;;;;;;15.23;14.73;;;29.50;99.90;;;;;;5063370;28;20594;-68
2023/07/11 09:01:41;;;;;;;15.90;15.30;;;29.20;99.90;;;;;;5066007;28;20494;-67
2023/07/11 09:04:13;;;;;;;15.53;15.03;;;28.80;99.90;;;;;;5066105;28;20475;-67
2023/07/11 09:06:47;;;;;;;15.27;14.77;;;28.60;99.90;;;;;;5064811;28;20880;-67
2023/07/11 09:09:13;;;;;;;15.03;14.53;;;28.70;99.90;;;;;;5058105;28;20459;-68
2023/07/11 09:11:46;;;;;;;15.73;15.20;;;29.20;99.90;;;;;;5064066;28;20907;-67
2023/07/11 09:14:27;;;;;;;16.60;16.00;;;30.40;99.90;;;;;;5062784;28;20509;-68
2023/07/11 09:17:01;;;;;;;17.40;16.80;;;30.90;99.90;;;;;;5063818;28;20490;-67
2023/07/11 09:19:50;;;;;;;15.67;15.17;;;31.10;98.70;;;;;;5066990;28;20470;-68
2023/07/11 09:22:24;;;;;;;14.90;14.40;;;31.40;99.30;;;;;;5063131;28;21131;-68
2023/07/11 09:24:57;;;;;;;14.40;14.00;;;31.20;98.60;;;;;;5065120;28;20482;-68
2023/07/11 09:27:27;;;;;;;15.10;14.60;;;31.30;98.90;;;;;;5062649;28;20458;-67
2023/07/11 09:29:55;;;;;;;15.60;15.10;;;31.40;98.30;;;;;;5066072;28;20966;-67
2023/07/11 09:32:31;;;;;;;14.97;14.47;;;31.50;98.20;;;;;;5064749;28;20455;-67
2023/07/11 09:34:58;;;;;;;15.70;15.20;;;31.60;97.50;;;;;;5070481;28;20556;-67
2023/07/11 09:37:31;;;;;;;15.07;14.57;;;31.30;96.70;;;;;;5061954;28;20459;-67
2023/07/11 09:40:03;;;;;;;15.00;14.50;;;31.90;96.60;;;;;;5062169;28;20791;-68
2023/07/11 09:42:41;;;;;;;15.10;14.60;;;32.00;95.80;;;;;;5064828;28;20930;-68
2023/07/11 09:45:12;;;;;;;14.87;14.37;;;32.70;94.70;;;;;;5066831;28;20553;-67
2023/07/11 09:47:42;;;;;;;15.40;14.90;;;33.20;93.70;;;;;;5061263;28;20466;-67
2023/07/11 09:50:27;;;;;;;16.30;15.70;;;33.40;93.00;;;;;;5065063;28;20482;-67
2023/07/11 09:52:57;;;;;;;15.43;14.93;;;33.50;92.40;;;;;;5057912;28;20487;-67
2023/07/11 09:55:26;;;;;;;14.90;14.40;;;33.80;92.10;;;;;;5058907;28;20474;-66
2023/07/11 09:57:53;;;;;;;15.30;14.80;;;34.00;91.30;;;;;;5068454;28;20827;-67
2023/07/11 10:00:19;;;;;;;15.00;14.50;;;34.70;90.80;;;;;;5063509;28;20486;-68
2023/07/11 10:02:48;;;;;;;15.03;14.53;;;35.10;86.20;;;;;;5057023;28;20463;-68
2023/07/11 10:05:19;;;;;;;15.43;14.93;;;35.30;84.60;;;;;;5063942;28;20867;-67
2023/07/11 10:07:47;;;;;;;15.90;15.40;;;35.30;82.20;;;;;;5066908;28;20463;-68
2023/07/11 10:10:15;;;;;;;16.30;15.70;;;35.10;79.40;;;;;;5061673;28;20447;-68
2023/07/11 10:12:45;;;;;;;15.73;15.23;;;34.70;79.00;;;;;;5063560;28;20887;-67
2023/07/11 10:15:15;;;;;;;15.20;14.70;;;34.80;79.60;;;;;;5061859;28;21094;-66
2023/07/11 10:17:43;;;;;;;15.60;15.10;;;35.30;79.00;;;;;;5044702;28;20468;-68
2023/07/11 10:20:17;;;;;;;14.90;14.40;;;35.00;76.00;;;;;;5046011;28;20468;-67
2023/07/11 10:22:47;;;;;;;15.10;14.60;;;34.80;75.80;;;;;;5040297;28;20473;-67
2023/07/11 10:25:20;;;;;;;15.33;14.83;;;35.30;73.10;;;;;;5047939;28;20452;-67
2023/07/11 10:27:52;;;;;;;14.93;14.43;;;35.20;73.10;;;;;;5042190;28;20537;-67
2023/07/11 10:30:25;;;;;;;15.43;14.93;;;35.00;75.30;;;;;;5043470;28;20471;-68
2023/07/11 10:32:56;;;;;;;14.97;14.47;;;35.60;74.10;;;;;;5042169;28;20455;-68
2023/07/11 10:35:26;;;;;;;15.43;14.93;;;35.20;73.90;;;;;;5047717;28;20472;-68
2023/07/11 10:37:55;;;;;;;15.40;14.90;;;35.20;74.40;;;;;;5035490;28;20582;-68
2023/07/11 10:40:27;;;;;;;14.80;14.30;;;35.50;75.40;;;;;;5046384;28;20459;-69
2023/07/11 10:43:04;;;;;;;14.87;14.37;;;35.90;72.00;;;;;;5050543;28;20470;-68
2023/07/11 10:45:36;;;;;;;14.97;14.47;;;35.90;70.00;;;;;;5045214;28;20488;-69
2023/07/11 10:48:12;;;;;;;15.67;15.17;;;36.10;72.00;;;;;;5036749;28;20912;-68
2023/07/11 10:50:45;;;;;;;15.60;15.10;;;36.50;68.50;;;;;;5047888;28;20478;-67
2023/07/11 10:53:19;;;;;;;15.40;14.90;;;36.40;67.60;;;;;;5048222;28;20512;-68
2023/07/11 10:55:52;;;;;;;15.50;15.00;;;35.70;69.10;;;;;;5047343;28;20989;-67
2023/07/11 10:58:22;;;;;;;15.33;14.83;;;35.70;68.10;;;;;;5048697;28;20814;-67
2023/07/11 11:00:58;;;;;;;15.77;15.27;;;36.00;69.00;;;;;;5055221;28;20493;-68
2023/07/11 11:03:40;;;;;;;15.70;15.20;;;36.10;67.10;;;;;;5043575;28;20503;-67
2023/07/11 11:06:23;;;;;;;15.00;14.50;;;36.00;66.60;;;;;;5048340;28;20996;-68
2023/07/11 11:08:58;;;;;;;15.80;15.30;;;36.80;67.00;;;;;;5043901;28;20460;-68
2023/07/11 11:11:33;;;;;;;15.00;14.50;;;36.60;65.90;;;;;;5044622;28;20486;-68
2023/07/11 11:14:10;;;;;;;14.57;14.17;;;36.90;65.80;;;;;;5038988;28;20476;-67
2023/07/11 11:16:44;;;;;;;14.57;14.17;;;37.40;64.70;;;;;;5035207;28;20518;-67
2023/07/11 11:19:19;;;;;;;14.50;14.10;;;37.90;63.40;;;;;;5042383;28;20460;-69
2023/07/11 11:21:55;;;;;;;15.33;14.83;;;37.80;62.60;;;;;;5035103;28;20900;-67
2023/07/11 11:24:44;;;;;;;15.17;14.67;;;37.50;63.90;;;;;;5043087;28;20464;-67
2023/07/11 11:27:23;;;;;;;15.20;14.70;;;37.30;63.10;;;;;;5041091;28;20455;-68
2023/07/11 11:29:56;;;;;;;15.23;14.73;;;37.50;62.70;;;;;;5046947;28;20467;-68
2023/07/11 11:32:31;;;;;;;15.00;14.50;;;37.90;61.80;;;;;;5033759;28;20512;-68
2023/07/11 11:35:30;;;;;;;15.30;14.80;;;38.30;60.50;;;;;;5045933;28;20839;-68
2023/07/11 11:38:14;;;;;;;15.13;14.63;;;37.90;60.80;;;;;;5045298;28;20452;-68
2023/07/11 11:40:44;;;;;;;14.67;14.23;;;37.40;61.60;;;;;;5042949;28;20471;-67
2023/07/11 11:43:12;;;;;;;14.40;14.00;;;37.50;61.70;;;;;;5047652;28;20988;-68
2023/07/11 11:45:41;;;;;;;14.93;14.43;;;37.60;63.10;;;;;;5044491;28;20816;-68
2023/07/11 11:48:17;;;;;;;15.13;14.63;;;37.30;62.10;;;;;;5047508;28;20456;-68
2023/07/11 11:50:45;;;;;;;14.80;14.30;;;36.00;63.40;;;;;;5046502;28;20471;-68
2023/07/11 11:53:31;;;;;;;14.90;14.40;;;36.90;63.90;;;;;;5046644;28;21083;-68
2023/07/11 11:56:00;;;;;;;14.60;14.20;;;37.20;64.10;;;;;;5044553;28;20473;-69
2023/07/11 11:58:29;;;;;;;15.27;14.77;;;37.90;62.50;;;;;;5047148;28;20457;-68
2023/07/11 12:00:58;;;;;;;15.10;14.60;;;38.50;62.30;;;;;;5042984;28;20475;-68
2023/07/11 12:03:28;;;;;;;14.43;14.03;;;39.10;62.00;;;;;;5041251;28;20510;-68
2023/07/11 12:05:58;;;;;;;14.70;14.30;;;39.50;60.20;;;;;;5040806;28;20475;-68
2023/07/11 12:08:32;;;;;;;14.20;13.80;;;39.90;58.50;;;;;;5047373;28;20463;-67
2023/07/11 12:11:04;;;;;;;13.73;13.33;;;40.10;58.70;;;;;;5045389;28;20891;-68
2023/07/11 12:13:32;;;;;;;14.30;13.90;;;40.00;59.40;;;;;;5046687;28;20993;-67
2023/07/11 12:16:06;;;;;;;14.80;14.30;;;40.10;58.40;;;;;;5056067;28;20608;-67
2023/07/11 12:18:44;;;;;;;14.40;14.00;;;39.20;59.40;;;;;;5073396;28;20469;-67
2023/07/11 12:21:31;;;;;;;14.13;13.73;;;39.10;59.90;;;;;;5066215;28;20490;-68
2023/07/11 12:24:22;;;;;;;13.90;13.50;;;39.80;57.90;;;;;;5065771;28;20551;-68
2023/07/11 12:26:52;;;;;;;13.60;13.20;;;40.10;57.50;;;;;;5068732;28;20531;-68
2023/07/11 12:29:40;;;;;;;13.73;13.33;;;40.20;57.90;;;;;;5068418;28;20455;-67
2023/07/11 12:32:29;;;;;;;14.30;13.90;;;39.70;58.80;;;;;;5066723;28;20633;-68
2023/07/11 12:34:56;;;;;;;13.43;13.03;;;39.90;58.60;;;;;;5066783;28;20475;-68
2023/07/11 12:37:27;;;;;;;13.47;13.07;;;40.00;58.90;;;;;;5064996;28;20463;-69
2023/07/11 12:40:09;;;;;;;14.10;13.70;;;39.60;58.30;;;;;;5064715;28;20652;-67
2023/07/11 12:42:48;;;;;;;13.27;12.87;;;39.10;58.80;;;;;;5055558;28;20483;-67